Time;durP1;ratioP1;P1;durP2;ratioP2;P2;SDS_P1;SDS_P2;PMS_P1;PMS_P2;Temp;Humidity;BMP_temperature;BMP_pressure;BME280_temperature;BME280_humidity;BME280_pressure;Samples;Min_cycle;Max_cycle;Signal;HPM_P1;HPM_P2
2023/05/29 00:01:56;;;;;;;;;;;;;;;21.88;46.29;101548.88;5007683;28;4385;-66
2023/05/29 00:04:23;;;;;;;;;;;;;;;21.88;46.22;101548.16;5013896;28;4119;-67
2023/05/29 00:06:50;;;;;;;;;;;;;;;21.87;46.21;101555.28;5002003;28;4161;-64
2023/05/29 00:09:17;;;;;;;;;;;;;;;21.88;46.54;101545.25;5009252;28;4361;-74
2023/05/29 00:11:45;;;;;;;;;;;;;;;21.83;46.40;101537.78;5008181;28;4156;-75
2023/05/29 00:14:13;;;;;;;;;;;;;;;21.88;46.26;101551.03;5008707;28;4115;-75
2023/05/29 00:16:40;;;;;;;;;;;;;;;21.88;46.50;101551.78;5003967;28;4147;-75
2023/05/29 00:19:08;;;;;;;;;;;;;;;21.87;46.51;101556.03;5008321;28;4044;-75
2023/05/29 00:21:35;;;;;;;;;;;;;;;21.85;46.66;101558.06;5008096;28;4482;-77
2023/05/29 00:24:01;;;;;;;;;;;;;;;21.86;46.28;101553.81;5007437;28;4221;-74
2023/05/29 00:26:28;;;;;;;;;;;;;;;21.88;46.64;101556.81;5008286;28;4036;-75
2023/05/29 00:28:55;;;;;;;;;;;;;;;21.85;46.75;101561.72;5007746;28;4129;-73
2023/05/29 00:31:21;;;;;;;;;;;;;;;21.88;46.76;101556.81;5011080;28;3997;-75
2023/05/29 00:33:48;;;;;;;;;;;;;;;21.86;46.98;101550.94;5015525;28;4427;-75
2023/05/29 00:36:14;;;;;;;;;;;;;;;21.87;46.88;101558.19;5005392;28;4265;-76
2023/05/29 00:38:40;;;;;;;;;;;;;;;21.84;47.10;101551.56;5008706;28;4082;-75
2023/05/29 00:41:07;;;;;;;;;;;;;;;21.86;46.90;101548.78;5004901;28;4239;-76
2023/05/29 00:43:34;;;;;;;;;;;;;;;21.85;47.31;101552.31;4996891;28;4082;-76
2023/05/29 00:46:00;;;;;;;;;;;;;;;21.86;46.78;101566.09;5007674;28;4203;-75
2023/05/29 00:48:27;;;;;;;;;;;;;;;21.84;46.98;101547.94;4992633;28;4178;-75
2023/05/29 00:50:53;;;;;;;;;;;;;;;21.83;46.84;101543.53;5010525;28;4732;-75
2023/05/29 00:53:21;;;;;;;;;;;;;;;21.84;47.09;101553.69;4991153;28;4144;-75
2023/05/29 00:55:47;;;;;;;;;;;;;;;21.83;46.96;101549.31;4995493;28;4009;-75
2023/05/29 00:58:13;;;;;;;;;;;;;;;21.83;47.10;101555.06;5007326;28;4077;-75
2023/05/29 01:00:40;;;;;;;;;;;;;;;21.82;47.21;101559.38;5008437;28;3995;-73
2023/05/29 01:03:07;;;;;;;;;;;;;;;21.81;47.01;101557.88;5015527;28;4393;-75
2023/05/29 01:05:34;;;;;;;;;;;;;;;21.83;46.77;101560.84;5008480;28;4169;-75
2023/05/29 01:08:01;;;;;;;;;;;;;;;21.82;46.88;101563.00;5007917;28;4071;-75
2023/05/29 01:10:28;;;;;;;;;;;;;;;21.83;47.32;101560.84;5010083;28;4039;-75
2023/05/29 01:13:08;;;;;;;;;;;;;;;21.82;47.02;101559.38;5003163;28;4216;-73
2023/05/29 01:15:43;;;;;;;;;;;;;;;21.82;47.21;101560.09;4995388;28;3968;-75
2023/05/29 01:18:28;;;;;;;;;;;;;;;21.81;47.19;101567.28;5011467;28;4330;-77
2023/05/29 01:21:01;;;;;;;;;;;;;;;21.82;47.43;101565.13;5009147;28;4219;-75
2023/05/29 01:23:43;;;;;;;;;;;;;;;21.80;47.12;101562.88;5014424;28;4155;-76
2023/05/29 01:26:30;;;;;;;;;;;;;;;21.81;47.09;101552.13;4990728;28;4091;-76
2023/05/29 01:28:56;;;;;;;;;;;;;;;21.80;47.15;101562.13;5005152;28;4121;-75
2023/05/29 01:31:23;;;;;;;;;;;;;;;21.80;47.10;101562.13;5007116;28;4236;-75
2023/05/29 01:33:53;;;;;;;;;;;;;;;21.80;46.96;101567.91;5004134;28;4046;-77
2023/05/29 01:36:20;;;;;;;;;;;;;;;21.79;47.07;101575.06;5009744;28;4039;-76
2023/05/29 01:38:48;;;;;;;;;;;;;;;21.79;47.10;101572.19;5012558;28;4498;-75
2023/05/29 01:41:15;;;;;;;;;;;;;;;21.78;47.11;101570.69;5007389;28;4195;-74
2023/05/29 01:43:42;;;;;;;;;;;;;;;21.77;47.06;101564.16;5013166;28;4001;-76
2023/05/29 01:46:09;;;;;;;;;;;;;;;21.78;47.28;101576.44;5009741;28;4284;-76
2023/05/29 01:48:36;;;;;;;;;;;;;;;21.76;47.15;101574.19;5010331;28;3993;-74
2023/05/29 01:51:02;;;;;;;;;;;;;;;20.98;45.93;101575.06;5011043;28;4949;-75
2023/05/29 01:53:29;;;;;;;;;;;;;;;20.74;45.04;101580.97;4998219;28;4146;-76
2023/05/29 01:55:55;;;;;;;;;;;;;;;21.12;44.82;101570.09;4998930;28;4395;-75
2023/05/29 01:58:21;;;;;;;;;;;;;;;21.33;44.68;101572.69;5006538;28;4539;-76
2023/05/29 02:00:48;;;;;;;;;;;;;;;21.46;44.48;101570.47;5012613;28;4080;-75
2023/05/29 02:03:14;;;;;;;;;;;;;;;21.52;44.66;101579.44;4996468;28;4449;-76
2023/05/29 02:05:41;;;;;;;;;;;;;;;21.56;45.16;101573.91;5005076;28;4244;-74
2023/05/29 02:08:07;;;;;;;;;;;;;;;21.60;45.43;101579.13;5005133;28;4176;-75
2023/05/29 02:10:34;;;;;;;;;;;;;;;21.62;45.23;101582.84;5010049;28;4200;-75
2023/05/29 02:13:00;;;;;;;;;;;;;;;21.63;45.41;101587.25;5011667;28;4142;-76
2023/05/29 02:15:27;;;;;;;;;;;;;;;21.63;45.51;101578.59;5012126;28;4472;-75
2023/05/29 02:17:55;;;;;;;;;;;;;;;21.64;45.62;101585.84;5005840;28;4528;-70
2023/05/29 02:20:21;;;;;;;;;;;;;;;21.64;45.66;101588.72;4990988;28;5392;-76
2023/05/29 02:22:48;;;;;;;;;;;;;;;21.64;45.75;101582.22;5002275;28;4188;-76
2023/05/29 02:25:14;;;;;;;;;;;;;;;21.63;45.77;101572.81;5003933;28;4651;-75
2023/05/29 02:27:41;;;;;;;;;;;;;;;21.63;45.85;101572.81;5013288;28;4228;-75
2023/05/29 02:30:08;;;;;;;;;;;;;;;21.63;45.75;101575.72;5010124;28;4049;-75
2023/05/29 02:32:34;;;;;;;;;;;;;;;21.63;45.98;101581.47;5008426;28;4151;-74
2023/05/29 02:35:03;;;;;;;;;;;;;;;21.63;46.13;101583.63;5007662;28;3935;-76
2023/05/29 02:37:30;;;;;;;;;;;;;;;21.63;45.92;101583.63;5010741;28;4115;-77
2023/05/29 02:39:56;;;;;;;;;;;;;;;21.63;46.19;101590.13;5007086;28;4496;-76
2023/05/29 02:42:22;;;;;;;;;;;;;;;21.62;46.18;101588.63;5015241;28;4182;-76
2023/05/29 02:44:50;;;;;;;;;;;;;;;21.62;46.26;101585.72;5011666;28;4364;-76
2023/05/29 02:47:17;;;;;;;;;;;;;;;21.62;46.21;101590.75;5006673;28;4081;-77
2023/05/29 02:49:43;;;;;;;;;;;;;;;21.61;46.28;101587.13;5008839;28;4152;-75
2023/05/29 02:52:09;;;;;;;;;;;;;;;21.61;46.33;101590.00;5007341;28;4095;-76
2023/05/29 02:54:36;;;;;;;;;;;;;;;21.60;46.18;101585.66;5007154;28;4261;-74
2023/05/29 02:57:04;;;;;;;;;;;;;;;21.60;46.27;101591.41;5015873;28;3958;-76
2023/05/29 02:59:31;;;;;;;;;;;;;;;21.60;46.39;101597.19;5016065;28;4104;-75
2023/05/29 03:01:58;;;;;;;;;;;;;;;21.60;46.06;101600.06;5007993;28;4407;-75
2023/05/29 03:04:24;;;;;;;;;;;;;;;21.60;46.20;101591.41;5010279;28;4406;-76
2023/05/29 03:06:52;;;;;;;;;;;;;;;21.60;46.28;101599.28;5013759;28;4194;-76
2023/05/29 03:09:19;;;;;;;;;;;;;;;21.59;46.38;101601.44;5013223;28;4111;-74
2023/05/29 03:11:47;;;;;;;;;;;;;;;21.59;46.23;101601.44;4993103;28;4346;-75
2023/05/29 03:14:13;;;;;;;;;;;;;;;21.57;46.36;101601.31;5006885;28;4049;-76
2023/05/29 03:16:40;;;;;;;;;;;;;;;21.58;46.55;101605.72;5006975;28;4212;-76
2023/05/29 03:19:07;;;;;;;;;;;;;;;21.58;46.43;101611.47;5006655;28;3961;-76
2023/05/29 03:21:33;;;;;;;;;;;;;;;21.57;46.48;101609.97;5007351;28;4210;-77
2023/05/29 03:24:00;;;;;;;;;;;;;;;21.56;46.44;101611.38;5002661;28;4234;-75
2023/05/29 03:26:27;;;;;;;;;;;;;;;21.57;46.46;101607.09;5005370;28;4130;-76
2023/05/29 03:28:53;;;;;;;;;;;;;;;21.57;46.56;101615.72;5009397;28;4484;-76
2023/05/29 03:31:19;;;;;;;;;;;;;;;21.57;46.38;101615.00;5016777;28;5252;-77
2023/05/29 03:33:46;;;;;;;;;;;;;;;21.56;46.62;101611.38;5009544;28;4664;-76
2023/05/29 03:36:38;;;;;;;;;;;;;;;21.55;46.54;101601.22;5003543;28;4041;-76
2023/05/29 03:39:04;;;;;;;;;;;;;;;21.56;46.58;101604.84;5013563;28;4197;-74
2023/05/29 03:41:31;;;;;;;;;;;;;;;21.46;46.43;101616.56;5023935;28;4357;-76
2023/05/29 03:43:57;;;;;;;;;;;;;;;21.29;46.25;101612.78;4996702;28;4188;-77
2023/05/29 03:46:27;;;;;;;;;;;;;;;21.40;45.78;101619.13;5016925;28;4064;-77
2023/05/29 03:48:53;;;;;;;;;;;;;;;21.46;46.15;101616.56;5005121;28;4197;-76
2023/05/29 03:51:20;;;;;;;;;;;;;;;21.46;46.25;101611.56;5008007;28;4424;-76
2023/05/29 03:53:48;;;;;;;;;;;;;;;21.49;46.04;101621.81;5014421;28;4266;-77
2023/05/29 03:56:14;;;;;;;;;;;;;;;21.50;46.00;101617.53;5005757;28;4090;-76
2023/05/29 03:58:41;;;;;;;;;;;;;;;21.50;46.04;101628.31;5011938;28;4224;-77
2023/05/29 04:01:09;;;;;;;;;;;;;;;21.51;46.19;101627.69;5017896;28;4213;-77
2023/05/29 04:03:36;;;;;;;;;;;;;;;21.51;46.43;101624.06;5008562;28;3973;-77
2023/05/29 04:06:02;;;;;;;;;;;;;;;21.52;46.22;101631.31;5003866;28;4147;-77
2023/05/29 04:08:29;;;;;;;;;;;;;;;21.51;46.44;101618.31;5011137;28;4222;-75
2023/05/29 04:10:56;;;;;;;;;;;;;;;21.51;46.28;101624.06;5015772;28;4318;-74
2023/05/29 04:13:22;;;;;;;;;;;;;;;21.50;46.57;101629.06;5008533;28;4996;-75
2023/05/29 04:15:48;;;;;;;;;;;;;;;21.51;46.65;101618.31;5007239;28;4214;-77
2023/05/29 04:18:16;;;;;;;;;;;;;;;21.51;46.49;101624.06;5006053;28;4944;-77
2023/05/29 04:20:45;;;;;;;;;;;;;;;21.50;46.73;101628.31;5007312;28;4207;-76
2023/05/29 04:23:12;;;;;;;;;;;;;;;21.51;46.55;101629.84;5022303;28;3947;-76
2023/05/29 04:25:39;;;;;;;;;;;;;;;21.50;46.66;101636.97;5008908;28;4142;-77
2023/05/29 04:28:05;;;;;;;;;;;;;;;21.50;46.69;101639.84;5007702;28;4798;-76
2023/05/29 04:30:33;;;;;;;;;;;;;;;21.50;46.68;101639.84;5001305;28;4131;-74
2023/05/29 04:33:01;;;;;;;;;;;;;;;21.50;46.83;101645.63;5017431;28;4246;-77
2023/05/29 04:35:31;;;;;;;;;;;;;;;21.49;46.84;101641.25;5004073;28;4348;-76
2023/05/29 04:38:01;;;;;;;;;;;;;;;21.48;46.98;101634.72;5010641;28;4122;-76
2023/05/29 04:40:31;;;;;;;;;;;;;;;21.50;46.76;101639.84;5008347;28;4270;-77
2023/05/29 04:43:01;;;;;;;;;;;;;;;21.50;46.85;101636.97;5007228;28;4133;-76
2023/05/29 04:45:39;;;;;;;;;;;;;;;21.49;46.97;101633.34;5007277;28;4287;-76
2023/05/29 04:48:05;;;;;;;;;;;;;;;21.50;47.03;101625.44;5005130;28;4009;-76
2023/05/29 04:50:33;;;;;;;;;;;;;;;21.49;46.80;101632.59;5017832;28;4214;-76
2023/05/29 04:52:59;;;;;;;;;;;;;;;21.50;47.04;101634.09;5013520;28;4139;-76
2023/05/29 04:55:25;;;;;;;;;;;;;;;21.50;46.92;101642.72;5020967;28;4069;-77
2023/05/29 04:57:52;;;;;;;;;;;;;;;21.49;46.89;101639.09;5012304;28;3968;-76
2023/05/29 05:00:19;;;;;;;;;;;;;;;21.50;46.91;101639.84;4985257;28;4476;-76
2023/05/29 05:02:46;;;;;;;;;;;;;;;21.49;46.91;101644.88;5009048;28;4255;-77
2023/05/29 05:05:13;;;;;;;;;;;;;;;21.49;46.94;101642.00;5002567;28;4051;-77
2023/05/29 05:07:39;;;;;;;;;;;;;;;21.49;47.13;101649.88;5007417;28;4194;-76
2023/05/29 05:10:06;;;;;;;;;;;;;;;21.48;46.96;101637.59;5008122;28;4142;-76
2023/05/29 05:12:33;;;;;;;;;;;;;;;21.49;47.07;101647.75;5010153;28;4102;-76
2023/05/29 05:15:01;;;;;;;;;;;;;;;21.47;47.12;101641.88;5018293;28;4124;-75
2023/05/29 05:17:28;;;;;;;;;;;;;;;21.50;47.19;101648.50;5021688;28;4791;-76
2023/05/29 05:19:55;;;;;;;;;;;;;;;21.49;47.04;101644.13;5006833;28;4077;-74
2023/05/29 05:22:21;;;;;;;;;;;;;;;21.48;47.20;101640.47;5012168;28;4188;-76
2023/05/29 05:24:49;;;;;;;;;;;;;;;21.49;47.23;101649.88;5008665;28;4120;-77
2023/05/29 05:27:15;;;;;;;;;;;;;;;21.48;47.21;101651.25;5009928;28;3950;-76
2023/05/29 05:29:42;;;;;;;;;;;;;;;21.48;47.25;101654.13;5008869;28;4174;-76
2023/05/29 05:32:09;;;;;;;;;;;;;;;21.49;47.18;101658.53;5014930;28;4307;-75
2023/05/29 05:34:35;;;;;;;;;;;;;;;21.49;47.05;101655.66;5001718;28;4151;-76
2023/05/29 05:37:02;;;;;;;;;;;;;;;21.49;47.08;101644.13;5018495;28;4168;-76
2023/05/29 05:39:29;;;;;;;;;;;;;;;21.48;47.02;101654.13;5000332;28;3975;-76
2023/05/29 05:41:55;;;;;;;;;;;;;;;21.48;47.30;101642.63;5013661;28;3959;-75
2023/05/29 05:44:39;;;;;;;;;;;;;;;21.49;47.14;101658.53;5005801;28;4141;-77
2023/05/29 05:47:09;;;;;;;;;;;;;;;21.48;47.35;101652.00;5009432;28;4082;-76
2023/05/29 05:49:36;;;;;;;;;;;;;;;21.48;47.04;101651.25;5005143;28;4189;-76
2023/05/29 05:52:02;;;;;;;;;;;;;;;21.48;47.13;101654.13;5026852;28;4169;-77
2023/05/29 05:54:29;;;;;;;;;;;;;;;21.48;47.15;101646.25;5008793;28;4093;-77
2023/05/29 05:56:55;;;;;;;;;;;;;;;21.49;47.40;101661.41;5009292;28;4088;-76
2023/05/29 05:59:22;;;;;;;;;;;;;;;21.50;47.25;101660.03;5005445;28;4088;-76
2023/05/29 06:01:49;;;;;;;;;;;;;;;21.50;47.48;101662.91;5007699;28;4101;-76
2023/05/29 06:04:17;;;;;;;;;;;;;;;21.49;47.44;101661.41;5014380;28;4242;-76
2023/05/29 06:06:43;;;;;;;;;;;;;;;21.49;47.49;101665.03;5011525;28;5286;-77
2023/05/29 06:09:11;;;;;;;;;;;;;;;21.49;47.40;101667.19;5014775;28;4193;-76
2023/05/29 06:11:37;;;;;;;;;;;;;;;21.49;47.41;101673.69;5007155;28;4198;-64
2023/05/29 06:14:04;;;;;;;;;;;;;;;21.49;47.14;101673.69;5004570;28;4176;-72
2023/05/29 06:16:30;;;;;;;;;;;;;;;21.49;47.22;101667.91;5009763;28;4130;-72
2023/05/29 06:18:57;;;;;;;;;;;;;;;21.50;47.36;101674.44;5004721;28;4162;-72
2023/05/29 06:21:24;;;;;;;;;;;;;;;21.50;47.40;101674.44;5015450;28;4714;-72
2023/05/29 06:23:53;;;;;;;;;;;;;;;21.50;47.59;101685.94;5014573;28;4080;-73
2023/05/29 06:26:20;;;;;;;;;;;;;;;21.49;47.52;101672.94;5014366;28;5371;-72
2023/05/29 06:28:48;;;;;;;;;;;;;;;21.49;47.27;101684.47;5014014;28;4334;-72
2023/05/29 06:31:15;;;;;;;;;;;;;;;21.49;47.33;101684.47;5008452;28;3946;-72
2023/05/29 06:33:42;;;;;;;;;;;;;;;21.49;47.63;101690.22;5011547;28;4500;-72
2023/05/29 06:36:09;;;;;;;;;;;;;;;21.49;47.56;101690.22;5010629;28;4032;-72
2023/05/29 06:38:35;;;;;;;;;;;;;;;21.49;47.59;101693.13;5007829;28;4430;-72
2023/05/29 06:41:02;;;;;;;;;;;;;;;21.48;47.65;101692.34;5010489;28;4592;-72
2023/05/29 06:43:29;;;;;;;;;;;;;;;21.48;47.47;101689.47;5010325;28;4099;-71
2023/05/29 06:45:56;;;;;;;;;;;;;;;21.48;47.44;101694.47;5010114;28;4065;-72
2023/05/29 06:48:23;;;;;;;;;;;;;;;21.48;47.44;101694.47;5004541;28;4151;-72
2023/05/29 06:50:50;;;;;;;;;;;;;;;21.48;47.74;101694.47;5004062;28;4049;-72
2023/05/29 06:53:35;;;;;;;;;;;;;;;21.48;47.55;101694.47;5004498;28;4489;-72
2023/05/29 06:56:02;;;;;;;;;;;;;;;21.48;47.67;101691.59;5006884;28;3951;-71
2023/05/29 06:58:30;;;;;;;;;;;;;;;21.49;47.70;101696.00;5006327;28;4690;-72
2023/05/29 07:00:57;;;;;;;;;;;;;;;21.49;47.57;101693.13;5016799;28;4432;-72
2023/05/29 07:03:30;;;;;;;;;;;;;;;21.48;47.67;101701.00;5000139;28;4106;-72
2023/05/29 07:05:56;;;;;;;;;;;;;;;21.49;47.76;101701.75;5015389;28;4141;-72
2023/05/29 07:08:23;;;;;;;;;;;;;;;21.48;47.53;101691.59;5003391;28;4118;-73
2023/05/29 07:10:51;;;;;;;;;;;;;;;21.49;47.80;101707.53;5023328;28;4174;-72
2023/05/29 07:13:19;;;;;;;;;;;;;;;21.48;47.80;101701.00;4999585;28;4057;-72
2023/05/29 07:15:46;;;;;;;;;;;;;;;21.49;47.83;101707.53;5013804;28;4087;-72
2023/05/29 07:18:13;;;;;;;;;;;;;;;21.49;47.79;101701.75;5007958;28;4012;-72
2023/05/29 07:20:41;;;;;;;;;;;;;;;21.49;47.83;101707.53;5004857;28;4056;-72
2023/05/29 07:23:11;;;;;;;;;;;;;;;21.47;47.77;101699.50;5001710;28;4048;-73
2023/05/29 07:25:37;;;;;;;;;;;;;;;21.48;47.76;101706.75;5007006;28;4080;-73
2023/05/29 07:28:04;;;;;;;;;;;;;;;21.49;47.82;101701.75;5009998;28;4296;-72
2023/05/29 07:30:47;;;;;;;;;;;;;;;21.48;47.89;101703.88;5025418;28;4434;-72
2023/05/29 07:33:13;;;;;;;;;;;;;;;21.48;47.62;101706.00;5009986;28;4176;-72
2023/05/29 07:35:39;;;;;;;;;;;;;;;21.48;47.91;101700.25;5005646;28;4012;-72
2023/05/29 07:38:06;;;;;;;;;;;;;;;21.49;47.92;101707.53;5013021;28;4128;-73
2023/05/29 07:40:33;;;;;;;;;;;;;;;21.48;47.69;101706.75;5009655;28;4292;-72
2023/05/29 07:43:25;;;;;;;;;;;;;;;21.48;47.83;101706.00;5002158;28;4203;-72
2023/05/29 07:45:55;;;;;;;;;;;;;;;21.46;47.95;101714.53;5010397;28;4224;-72
2023/05/29 07:48:22;;;;;;;;;;;;;;;21.52;47.65;101720.66;5007352;28;4180;-73
2023/05/29 07:50:51;;;;;;;;;;;;;;;21.30;46.92;101715.13;5006073;28;4131;-73
2023/05/29 07:53:18;;;;;;;;;;;;;;;21.30;45.96;101715.13;5012226;28;4535;-72
2023/05/29 07:55:46;;;;;;;;;;;;;;;21.33;45.12;101713.09;5005919;28;4219;-72
2023/05/29 07:58:12;;;;;;;;;;;;;;;21.34;44.74;101721.09;5009698;28;4166;-73
2023/05/29 08:00:40;;;;;;;;;;;;;;;21.32;44.82;101712.34;5003292;28;4037;-73
2023/05/29 08:03:08;;;;;;;;;;;;;;;21.16;44.25;101725.81;5005138;28;4063;-73
2023/05/29 08:05:55;;;;;;;;;;;;;;;21.25;43.68;101719.13;4998887;28;4584;-73
2023/05/29 08:08:21;;;;;;;;;;;;;;;21.27;43.70;101725.03;5008431;28;4078;-71
2023/05/29 08:10:48;;;;;;;;;;;;;;;21.36;43.56;101717.59;5000595;28;4160;-74
2023/05/29 08:13:14;;;;;;;;;;;;;;;21.41;43.75;101725.09;4995416;28;4237;-73
2023/05/29 08:15:43;;;;;;;;;;;;;;;21.46;44.00;101721.06;5000287;28;4270;-73
2023/05/29 08:18:09;;;;;;;;;;;;;;;21.50;43.82;101729.19;4999716;28;4246;-74
2023/05/29 08:20:36;;;;;;;;;;;;;;;21.51;44.01;101724.94;5007282;28;4116;-73
2023/05/29 08:23:02;;;;;;;;;;;;;;;21.51;44.36;101733.56;5003588;28;4041;-73
2023/05/29 08:25:29;;;;;;;;;;;;;;;21.51;44.13;101739.34;5003327;28;4267;-74
2023/05/29 08:27:55;;;;;;;;;;;;;;;21.52;44.31;101740.81;5000899;28;4999;-72
2023/05/29 08:30:21;;;;;;;;;;;;;;;21.53;44.46;101727.91;5006609;28;4008;-73
2023/05/29 08:32:50;;;;;;;;;;;;;;;21.52;44.61;101729.28;5002472;28;4235;-73
2023/05/29 08:35:16;;;;;;;;;;;;;;;21.54;44.63;101726.53;5001606;28;4108;-73
2023/05/29 08:37:43;;;;;;;;;;;;;;;21.54;44.74;101724.38;5003962;28;4038;-73
2023/05/29 08:40:09;;;;;;;;;;;;;;;21.55;44.72;101722.25;4998771;28;4101;-73
2023/05/29 08:42:36;;;;;;;;;;;;;;;21.55;44.69;101722.25;5002799;28;4017;-73
2023/05/29 08:45:03;;;;;;;;;;;;;;;21.56;44.81;101723.75;4999295;28;4124;-73
2023/05/29 08:47:31;;;;;;;;;;;;;;;21.58;45.10;101726.00;5006669;28;4047;-73
2023/05/29 08:49:58;;;;;;;;;;;;;;;21.57;44.99;101725.25;5006168;28;3988;-72
2023/05/29 08:52:27;;;;;;;;;;;;;;;21.58;45.12;101721.00;5007622;28;4184;-73
2023/05/29 08:54:54;;;;;;;;;;;;;;;21.59;45.09;101721.75;5008578;28;4285;-73
2023/05/29 08:57:20;;;;;;;;;;;;;;;21.58;45.15;101721.00;5004135;28;4078;-75
2023/05/29 08:59:49;;;;;;;;;;;;;;;21.56;45.60;101728.78;5004099;28;4242;-73
2023/05/29 09:02:15;;;;;;;;;;;;;;;21.52;45.73;101729.28;5005360;28;4480;-71
2023/05/29 09:04:44;;;;;;;;;;;;;;;21.54;45.45;101720.75;5001531;28;4146;-73
2023/05/29 09:07:11;;;;;;;;;;;;;;;21.47;45.22;101724.69;5002071;28;4018;-74
2023/05/29 09:09:37;;;;;;;;;;;;;;;21.47;45.55;101721.81;4999685;28;4159;-76
2023/05/29 09:12:04;;;;;;;;;;;;;;;21.47;45.24;101721.81;5003968;28;4349;-75
2023/05/29 09:14:37;;;;;;;;;;;;;;;21.52;45.49;101715.63;5008600;28;4309;-75
2023/05/29 09:17:04;;;;;;;;;;;;;;;21.56;45.89;101718.00;5000666;28;4129;-75
2023/05/29 09:19:30;;;;;;;;;;;;;;;21.43;45.73;101716.56;5004274;28;4039;-76
2023/05/29 09:22:03;;;;;;;;;;;;;;;21.26;45.35;101709.13;5006847;28;4411;-79
2023/05/29 09:24:31;;;;;;;;;;;;;;;21.10;43.91;101713.97;4996339;28;4109;-76
2023/05/29 09:27:01;;;;;;;;;;;;;;;20.56;43.29;101723.78;4999360;28;4126;-76
2023/05/29 09:29:30;;;;;;;;;;;;;;;20.97;43.99;101726.91;5002019;28;3945;-76
2023/05/29 09:31:56;;;;;;;;;;;;;;;20.02;43.64;101726.34;5002684;28;4010;-73
2023/05/29 09:34:23;;;;;;;;;;;;;;;20.87;44.56;101729.97;5000000;28;4195;-76
2023/05/29 09:36:51;;;;;;;;;;;;;;;21.29;45.30;101727.28;4998576;28;4303;-75
2023/05/29 09:39:18;;;;;;;;;;;;;;;21.48;45.67;101737.72;4997132;28;4089;-74
2023/05/29 09:41:45;;;;;;;;;;;;;;;21.56;45.55;101735.28;5004416;28;4073;-74
2023/05/29 09:44:15;;;;;;;;;;;;;;;21.60;45.58;101735.53;5004557;28;4159;-75
2023/05/29 09:46:42;;;;;;;;;;;;;;;21.62;45.63;101726.97;5000573;28;4122;-73
2023/05/29 09:49:12;;;;;;;;;;;;;;;21.66;45.59;101732.97;5005570;28;4147;-74
2023/05/29 09:51:39;;;;;;;;;;;;;;;21.64;45.65;101724.19;5001755;28;4313;-73
2023/05/29 09:54:17;;;;;;;;;;;;;;;21.65;45.94;101731.47;5006435;28;4385;-74
2023/05/29 09:56:44;;;;;;;;;;;;;;;21.66;45.91;101727.19;5009318;28;4048;-74
2023/05/29 09:59:10;;;;;;;;;;;;;;;21.33;45.09;101719.59;5000998;28;4202;-78
2023/05/29 10:01:41;;;;;;;;;;;;;;;21.53;46.23;101707.72;5005604;28;4142;-77
2023/05/29 10:04:10;;;;;;;;;;;;;;;21.61;46.17;101710.31;5000158;28;4116;-72
2023/05/29 10:06:37;;;;;;;;;;;;;;;21.45;43.96;101716.69;5006182;28;4516;-72
2023/05/29 10:09:03;;;;;;;;;;;;;;;21.39;43.50;101718.44;5006287;28;4130;-73
2023/05/29 10:11:31;;;;;;;;;;;;;;;21.12;42.97;101716.97;4985665;28;4050;-73
2023/05/29 10:13:57;;;;;;;;;;;;;;;21.02;43.48;101716.38;5010042;28;4111;-72
2023/05/29 10:16:23;;;;;;;;;;;;;;;20.97;43.55;101715.41;5011091;28;4319;-72
2023/05/29 10:18:54;;;;;;;;;;;;;;;21.01;42.49;101729.28;5006224;28;4177;-73
2023/05/29 10:21:20;;;;;;;;;;;;;;;21.16;42.43;101722.94;4997931;28;4071;-72
2023/05/29 10:23:48;;;;;;;;;;;;;;;21.27;42.76;101719.25;5007987;28;4156;-73
2023/05/29 10:26:15;;;;;;;;;;;;;;;21.28;42.94;101720.00;5012541;28;4158;-72
2023/05/29 10:28:43;;;;;;;;;;;;;;;20.99;42.48;101726.28;4995093;28;4337;-73
2023/05/29 10:31:11;;;;;;;;;;;;;;;20.95;43.10;101720.28;5002421;28;4165;-72
2023/05/29 10:33:44;;;;;;;;;;;;;;;21.08;43.05;101728.25;5001653;28;4227;-73
2023/05/29 10:36:14;;;;;;;;;;;;;;;21.06;41.31;101719.50;5004710;28;4144;-72
2023/05/29 10:38:40;;;;;;;;;;;;;;;21.13;41.93;101724.22;5006044;28;4190;-73
2023/05/29 10:41:28;;;;;;;;;;;;;;;21.14;41.65;101719.94;5006343;28;4134;-72
2023/05/29 10:43:58;;;;;;;;;;;;;;;21.29;41.46;101716.50;4998622;28;4175;-72
2023/05/29 10:46:44;;;;;;;;;;;;;;;21.09;40.42;101712.47;5008851;28;4319;-75
2023/05/29 10:49:16;;;;;;;;;;;;;;;21.07;39.50;101704.47;5000700;28;4162;-73
2023/05/29 10:51:43;;;;;;;;;;;;;;;21.32;41.26;101705.81;5006487;28;3975;-73
2023/05/29 10:54:09;;;;;;;;;;;;;;;21.16;40.33;101699.16;5008687;28;4360;-73
2023/05/29 10:56:36;;;;;;;;;;;;;;;21.23;39.84;101701.75;5008413;28;3928;-72
2023/05/29 10:59:02;;;;;;;;;;;;;;;21.16;40.29;101702.03;5009129;28;4108;-72
2023/05/29 11:01:30;;;;;;;;;;;;;;;21.27;40.40;101699.09;5013017;28;4024;-72
2023/05/29 11:04:19;;;;;;;;;;;;;;;21.47;41.53;101705.28;5006840;28;4011;-72
2023/05/29 11:06:46;;;;;;;;;;;;;;;21.25;40.54;101701.84;5008504;28;4132;-73
2023/05/29 11:09:25;;;;;;;;;;;;;;;21.28;40.87;101697.72;5007379;28;4144;-72
2023/05/29 11:12:11;;;;;;;;;;;;;;;21.37;40.54;101693.13;5002944;28;4098;-71
2023/05/29 11:14:44;;;;;;;;;;;;;;;21.46;40.28;101700.13;5004105;28;4467;-72
2023/05/29 11:17:27;;;;;;;;;;;;;;;21.32;39.87;101700.06;5001795;28;4128;-72
2023/05/29 11:19:55;;;;;;;;;;;;;;;21.29;40.03;101695.59;5000165;28;6022;-72
2023/05/29 11:22:22;;;;;;;;;;;;;;;21.47;40.37;101695.88;4995505;28;4052;-72
2023/05/29 11:24:48;;;;;;;;;;;;;;;21.32;40.52;101694.31;5005203;28;4256;-72
2023/05/29 11:27:15;;;;;;;;;;;;;;;21.03;39.65;101697.75;5007707;28;4116;-72
2023/05/29 11:29:41;;;;;;;;;;;;;;;21.37;42.57;101686.63;4999898;28;4194;-72
2023/05/29 11:32:10;;;;;;;;;;;;;;;21.29;40.37;101690.56;5003917;28;4123;-72
2023/05/29 11:34:38;;;;;;;;;;;;;;;21.36;40.30;101690.91;5000366;28;4066;-72
2023/05/29 11:37:04;;;;;;;;;;;;;;;21.41;39.90;101692.66;4999182;28;4001;-71
2023/05/29 11:39:31;;;;;;;;;;;;;;;21.25;40.48;101689.59;5003935;28;4293;-72
2023/05/29 11:41:57;;;;;;;;;;;;;;;21.24;39.86;101691.72;5005991;28;4237;-72
2023/05/29 11:44:24;;;;;;;;;;;;;;;21.36;39.84;101688.78;5007617;28;3952;-72
2023/05/29 11:47:03;;;;;;;;;;;;;;;21.43;39.61;101684.13;5006149;28;3994;-72
2023/05/29 11:49:30;;;;;;;;;;;;;;;21.38;39.25;101677.38;5001910;28;3998;-72
2023/05/29 11:52:07;;;;;;;;;;;;;;;21.44;38.86;101685.63;5003746;28;4305;-72
2023/05/29 11:54:46;;;;;;;;;;;;;;;21.53;39.47;101678.91;5004933;28;4151;-72
2023/05/29 11:57:17;;;;;;;;;;;;;;;21.42;38.75;101685.53;5006128;28;4137;-72
2023/05/29 11:59:45;;;;;;;;;;;;;;;21.44;39.42;101679.84;5005129;28;4437;-72
2023/05/29 12:02:11;;;;;;;;;;;;;;;21.29;38.70;101684.06;5004287;28;4058;-72
2023/05/29 12:04:38;;;;;;;;;;;;;;;21.21;38.82;101686.47;5006386;28;4063;-72
2023/05/29 12:07:19;;;;;;;;;;;;;;;21.36;39.75;101682.28;5001762;28;4048;-72
2023/05/29 12:09:48;;;;;;;;;;;;;;;21.42;40.00;101686.28;5008296;28;4009;-72
2023/05/29 12:12:15;;;;;;;;;;;;;;;21.52;38.60;101683.94;5007547;28;4058;-72
2023/05/29 12:14:41;;;;;;;;;;;;;;;21.57;39.17;101678.38;5002132;28;4140;-71
2023/05/29 12:17:08;;;;;;;;;;;;;;;21.43;39.25;101670.47;5006080;28;4536;-70
2023/05/29 12:19:35;;;;;;;;;;;;;;;21.45;38.83;101678.47;5003771;28;4040;-71
2023/05/29 12:22:01;;;;;;;;;;;;;;;21.32;39.52;101671.25;5002006;28;4058;-71
2023/05/29 12:24:29;;;;;;;;;;;;;;;21.37;39.62;101675.09;4997522;28;3973;-70
2023/05/29 12:27:08;;;;;;;;;;;;;;;21.47;39.27;101664.19;5004005;28;4053;-70
2023/05/29 12:29:35;;;;;;;;;;;;;;;21.57;39.93;101661.84;5007236;28;4094;-71
2023/05/29 12:32:01;;;;;;;;;;;;;;;21.54;39.23;101668.91;5009870;28;4139;-70
2023/05/29 12:34:29;;;;;;;;;;;;;;;21.63;38.60;101670.09;5005253;28;3941;-71
2023/05/29 12:37:03;;;;;;;;;;;;;;;21.59;37.92;101669.84;4998459;28;4132;-72
2023/05/29 12:39:30;;;;;;;;;;;;;;;21.74;37.26;101675.75;4999519;28;4223;-71
2023/05/29 12:41:56;;;;;;;;;;;;;;;21.41;36.06;101675.38;4998277;28;4071;-71
2023/05/29 12:44:23;;;;;;;;;;;;;;;21.36;37.88;101665.72;5001376;28;4176;-70
2023/05/29 12:46:49;;;;;;;;;;;;;;;21.43;37.44;101681.25;4994338;28;3988;-67
2023/05/29 12:49:16;;;;;;;;;;;;;;;21.70;38.53;101675.53;4999588;28;4149;-65
2023/05/29 12:51:43;;;;;;;;;;;;;;;21.79;39.37;101675.97;4995287;28;4069;-66
2023/05/29 12:54:11;;;;;;;;;;;;;;;21.83;39.98;101676.16;4994400;28;4006;-65